createdAt,value
2017-08-29T00:00:05.788Z,54.23
2017-08-29T00:02:33.535Z,54.43
2017-08-29T00:05:01.160Z,56.27
2017-08-29T00:07:28.783Z,57.43
2017-08-29T00:09:56.487Z,56.77
2017-08-29T00:12:24.092Z,58.60
2017-08-29T00:14:51.708Z,58.00
2017-08-29T00:17:19.354Z,56.10
2017-08-29T00:19:47.011Z,57.37
2017-08-29T00:22:14.626Z,52.00
2017-08-29T00:24:42.267Z,50.80
2017-08-29T00:27:09.978Z,53.70
2017-08-29T00:29:37.594Z,53.60
2017-08-29T00:32:05.285Z,54.10
2017-08-29T00:34:33.003Z,54.13
2017-08-29T00:37:00.674Z,55.60
2017-08-29T00:39:28.343Z,54.93
2017-08-29T00:41:56.055Z,54.93
2017-08-29T00:44:23.790Z,57.97
2017-08-29T00:46:51.452Z,55.53
2017-08-29T00:49:19.048Z,57.67
2017-08-29T00:51:46.714Z,58.80
2017-08-29T00:54:14.420Z,60.20
2017-08-29T00:56:42.137Z,56.13
2017-08-29T00:59:10.105Z,59.50
2017-08-29T01:01:37.871Z,58.70
2017-08-29T01:04:05.531Z,62.07
2017-08-29T01:06:33.342Z,59.73
2017-08-29T01:09:01.090Z,59.70
2017-08-29T01:11:28.748Z,57.27
2017-08-29T01:13:56.555Z,58.57
2017-08-29T01:16:24.540Z,57.97
2017-08-29T01:18:52.475Z,55.03
2017-08-29T01:21:20.406Z,58.37
2017-08-29T01:23:48.236Z,57.43
2017-08-29T01:26:16.067Z,56.37
2017-08-29T01:28:43.820Z,54.33
2017-08-29T01:31:11.479Z,56.40
2017-08-29T01:33:39.159Z,55.60
2017-08-29T01:36:07.297Z,57.13
2017-08-29T01:38:35.290Z,58.27
2017-08-29T01:41:03.080Z,57.03
2017-08-29T01:43:30.952Z,60.97
2017-08-29T01:46:05.149Z,57.53
2017-08-29T01:48:32.913Z,56.83
2017-08-29T01:51:00.758Z,59.37
2017-08-29T01:53:28.510Z,59.27
2017-08-29T01:55:56.282Z,60.97
2017-08-29T01:58:24.183Z,62.13
2017-08-29T02:00:53.147Z,59.87
2017-08-29T02:03:20.978Z,57.40
2017-08-29T02:05:49.388Z,54.80
2017-08-29T02:08:17.156Z,58.27
2017-08-29T02:10:45.044Z,57.07
2017-08-29T02:13:12.857Z,54.73
2017-08-29T02:15:40.649Z,56.40
2017-08-29T02:18:08.415Z,57.80
2017-08-29T02:20:36.194Z,61.27
2017-08-29T02:23:04.015Z,64.50
2017-08-29T02:25:31.691Z,64.50
2017-08-29T02:27:59.336Z,55.93
2017-08-29T02:30:26.998Z,57.87
2017-08-29T02:32:54.692Z,59.07
2017-08-29T02:35:22.414Z,63.50
2017-08-29T02:37:50.042Z,62.57
2017-08-29T02:40:17.682Z,61.97
2017-08-29T02:42:45.320Z,53.83
2017-08-29T02:45:12.926Z,55.60
2017-08-29T02:47:40.545Z,57.60
2017-08-29T02:50:08.225Z,54.90
2017-08-29T02:52:35.890Z,57.33
2017-08-29T02:55:03.487Z,58.10
2017-08-29T02:57:31.118Z,61.83
2017-08-29T02:59:58.747Z,62.60
2017-08-29T03:02:26.362Z,63.53
2017-08-29T03:04:53.959Z,63.80
2017-08-29T03:07:21.620Z,65.00
2017-08-29T03:09:49.206Z,63.97
2017-08-29T03:12:16.836Z,65.00
2017-08-29T03:14:44.439Z,62.50
2017-08-29T03:17:12.096Z,61.00
2017-08-29T03:19:39.680Z,60.27
2017-08-29T03:22:07.423Z,62.30
2017-08-29T03:24:35.085Z,69.33
2017-08-29T03:27:02.710Z,62.00
2017-08-29T03:29:30.304Z,58.33
2017-08-29T03:31:58.050Z,60.53
2017-08-29T03:34:25.657Z,59.90
2017-08-29T03:36:53.268Z,59.00
2017-08-29T03:39:20.919Z,58.90
2017-08-29T03:41:48.530Z,59.30
2017-08-29T03:44:16.109Z,56.50
2017-08-29T03:46:43.746Z,54.37
2017-08-29T03:49:11.326Z,53.20
2017-08-29T03:51:38.945Z,56.60
2017-08-29T03:54:06.543Z,63.17
2017-08-29T03:56:34.197Z,55.70
2017-08-29T03:59:01.783Z,55.40
2017-08-29T04:01:29.423Z,51.80
2017-08-29T04:03:57.038Z,52.60
2017-08-29T04:06:24.663Z,57.00
2017-08-29T04:08:52.254Z,54.57
2017-08-29T04:11:19.910Z,53.73
2017-08-29T04:13:47.521Z,57.77
2017-08-29T04:16:15.139Z,56.40
2017-08-29T04:18:42.754Z,56.30
2017-08-29T04:21:10.356Z,58.90
2017-08-29T04:23:37.947Z,54.17
2017-08-29T04:26:05.600Z,56.47
2017-08-29T04:28:33.184Z,58.73
2017-08-29T04:31:00.799Z,53.23
2017-08-29T04:33:28.446Z,58.40
2017-08-29T04:35:56.089Z,56.93
2017-08-29T04:38:23.677Z,59.00
2017-08-29T04:40:51.276Z,56.97
2017-08-29T04:43:18.864Z,53.13
2017-08-29T04:45:46.571Z,53.60
2017-08-29T04:48:14.159Z,55.50
2017-08-29T04:50:41.746Z,53.87
2017-08-29T04:53:09.447Z,50.20
2017-08-29T04:55:37.036Z,49.13
2017-08-29T04:58:04.644Z,50.87
2017-08-29T05:00:32.332Z,49.30
2017-08-29T05:02:59.969Z,51.03
2017-08-29T05:05:27.631Z,48.17
2017-08-29T05:07:55.357Z,47.77
2017-08-29T05:10:22.976Z,48.77
2017-08-29T05:12:50.605Z,48.27
2017-08-29T05:15:18.232Z,46.60
2017-08-29T05:17:45.942Z,43.73
2017-08-29T05:20:13.563Z,49.40
2017-08-29T05:22:41.190Z,47.23
2017-08-29T05:25:08.841Z,45.10
2017-08-29T05:27:36.471Z,46.23
2017-08-29T05:30:04.072Z,47.37
2017-08-29T05:35:08.117Z,44.10
2017-08-29T05:37:35.794Z,47.60
2017-08-29T05:40:03.395Z,46.90
2017-08-29T05:42:31.025Z,44.70
2017-08-29T05:44:58.638Z,45.83
2017-08-29T05:47:26.242Z,44.17
2017-08-29T05:49:53.828Z,46.30
2017-08-29T05:52:21.441Z,44.70
2017-08-29T05:54:49.339Z,41.67
2017-08-29T05:57:17.033Z,40.73
2017-08-29T05:59:44.653Z,41.10
2017-08-29T06:02:12.293Z,41.00
2017-08-29T06:04:39.893Z,38.97
2017-08-29T06:07:07.585Z,37.47
2017-08-29T06:09:35.191Z,34.77
2017-08-29T06:12:02.810Z,36.30
2017-08-29T06:14:30.584Z,37.40
2017-08-29T06:16:58.287Z,38.60
2017-08-29T06:19:25.912Z,37.10
2017-08-29T06:21:54.372Z,37.80
2017-08-29T06:24:22.181Z,36.67
2017-08-29T06:26:49.810Z,36.70
2017-08-29T06:29:17.402Z,34.13
2017-08-29T06:31:45.046Z,33.63
2017-08-29T06:34:12.663Z,32.40
2017-08-29T06:36:40.303Z,34.17
2017-08-29T06:39:08.045Z,33.27
2017-08-29T06:41:35.692Z,33.20
2017-08-29T06:44:03.421Z,32.57
2017-08-29T06:46:31.212Z,29.70
2017-08-29T06:48:58.930Z,30.90
2017-08-29T06:51:26.569Z,29.57
2017-08-29T06:53:54.202Z,29.50
2017-08-29T06:56:21.884Z,28.13
2017-08-29T06:58:50.438Z,27.80
2017-08-29T07:01:18.294Z,25.13
2017-08-29T07:03:46.725Z,26.50
2017-08-29T07:06:14.472Z,24.07
2017-08-29T07:08:42.133Z,25.07
2017-08-29T07:11:09.760Z,25.27
2017-08-29T07:13:37.615Z,21.83
2017-08-29T07:16:05.236Z,22.97
2017-08-29T07:18:32.858Z,21.80
2017-08-29T07:21:00.474Z,22.80
2017-08-29T07:23:28.141Z,22.17
2017-08-29T07:25:55.793Z,22.47
2017-08-29T07:28:23.448Z,22.02
2017-08-29T07:30:51.064Z,22.40
2017-08-29T07:33:18.694Z,21.20
2017-08-29T07:35:46.328Z,21.77
2017-08-29T07:38:13.942Z,21.23
2017-08-29T07:40:41.647Z,19.73
2017-08-29T07:43:09.392Z,19.65
2017-08-29T07:45:37.002Z,18.05
2017-08-29T07:48:04.685Z,19.35
2017-08-29T07:50:32.416Z,18.62
2017-08-29T07:53:00.057Z,19.12
2017-08-29T07:55:27.728Z,17.60
2017-08-29T07:57:55.441Z,18.23
2017-08-29T08:00:23.036Z,17.35
2017-08-29T08:02:50.654Z,16.98
2017-08-29T08:05:18.384Z,16.15
2017-08-29T08:07:45.999Z,15.63
2017-08-29T08:10:13.620Z,13.32
2017-08-29T08:12:41.343Z,14.10
2017-08-29T08:15:08.973Z,12.57
2017-08-29T08:17:36.608Z,13.27
2017-08-29T08:20:04.237Z,12.27
2017-08-29T08:22:31.842Z,11.88
2017-08-29T08:24:59.447Z,12.68
2017-08-29T08:27:27.094Z,11.88
2017-08-29T08:29:54.805Z,11.38
2017-08-29T08:32:22.413Z,12.20
2017-08-29T08:34:50.027Z,11.32
2017-08-29T08:37:17.659Z,11.85
2017-08-29T08:39:45.283Z,10.95
2017-08-29T08:42:12.900Z,11.18
2017-08-29T08:44:40.516Z,10.73
2017-08-29T08:47:08.203Z,12.43
2017-08-29T08:49:37.355Z,10.25
2017-08-29T08:52:05.013Z,11.38
2017-08-29T08:54:32.653Z,10.02
2017-08-29T08:57:00.263Z,9.80
2017-08-29T08:59:27.845Z,9.30
2017-08-29T09:01:55.488Z,9.77
2017-08-29T09:04:23.097Z,10.15
2017-08-29T09:06:50.715Z,9.57
2017-08-29T09:09:18.338Z,10.30
2017-08-29T09:11:45.964Z,10.10
2017-08-29T09:14:13.557Z,9.90
2017-08-29T09:16:41.239Z,9.35
2017-08-29T09:19:09.158Z,10.02
2017-08-29T09:21:36.831Z,10.48
2017-08-29T09:24:04.448Z,10.23
2017-08-29T09:26:32.064Z,10.43
2017-08-29T09:28:59.712Z,9.68
2017-08-29T09:31:27.350Z,9.93
2017-08-29T09:33:54.982Z,9.32
2017-08-29T09:36:22.615Z,11.15
2017-08-29T09:38:50.229Z,9.98
2017-08-29T09:41:17.859Z,10.05
2017-08-29T09:43:45.602Z,9.60
2017-08-29T09:46:13.210Z,9.18
2017-08-29T09:48:40.844Z,10.48
2017-08-29T09:51:08.480Z,10.02
2017-08-29T09:53:36.138Z,9.60
2017-08-29T09:56:03.774Z,9.07
2017-08-29T09:58:31.458Z,8.20
2017-08-29T10:00:59.102Z,8.02
2017-08-29T10:03:27.910Z,8.68
2017-08-29T10:05:55.520Z,8.98
2017-08-29T10:08:23.192Z,8.75
2017-08-29T10:10:50.928Z,9.60
2017-08-29T10:13:18.548Z,8.75
2017-08-29T10:15:46.182Z,8.43
2017-08-29T10:18:13.808Z,8.75
2017-08-29T10:20:42.483Z,9.43
2017-08-29T10:23:10.186Z,7.90
2017-08-29T10:25:37.837Z,9.98
2017-08-29T10:28:05.531Z,8.52
2017-08-29T10:30:36.999Z,9.05
2017-08-29T10:33:05.800Z,8.75
2017-08-29T10:35:33.523Z,7.62
2017-08-29T10:38:01.152Z,7.18
2017-08-29T10:40:28.804Z,8.00
2017-08-29T10:42:56.419Z,8.52
2017-08-29T10:45:24.027Z,9.77
2017-08-29T10:47:51.692Z,7.93
2017-08-29T10:50:19.385Z,8.68
2017-08-29T10:52:47.062Z,7.75
2017-08-29T10:55:14.652Z,9.60
2017-08-29T10:57:42.296Z,7.70
2017-08-29T11:00:09.918Z,8.85
2017-08-29T11:02:37.541Z,8.63
2017-08-29T11:05:05.136Z,8.13
2017-08-29T11:07:32.745Z,8.73
2017-08-29T11:10:00.345Z,8.63
2017-08-29T11:12:27.970Z,7.82
2017-08-29T11:14:55.586Z,7.47
2017-08-29T11:17:23.222Z,7.95
2017-08-29T11:19:51.678Z,7.82
2017-08-29T11:22:19.364Z,7.10
2017-08-29T11:24:47.125Z,6.93
2017-08-29T11:27:14.910Z,7.90
2017-08-29T11:29:42.515Z,6.70
2017-08-29T11:32:10.159Z,7.62
2017-08-29T11:34:37.772Z,7.90
2017-08-29T11:37:05.400Z,7.37
2017-08-29T11:39:33.095Z,8.13
2017-08-29T11:42:00.744Z,6.60
2017-08-29T11:44:28.422Z,7.20
2017-08-29T11:46:56.047Z,6.73
2017-08-29T11:49:23.705Z,7.00
2017-08-29T11:51:51.316Z,7.53
2017-08-29T11:54:18.959Z,7.20
2017-08-29T11:56:46.587Z,7.30
2017-08-29T11:59:14.236Z,7.63
2017-08-29T12:01:41.915Z,7.60
2017-08-29T12:04:09.550Z,6.63
2017-08-29T12:06:37.483Z,7.17
2017-08-29T12:09:07.526Z,7.03
2017-08-29T12:11:35.453Z,6.97
2017-08-29T12:14:03.714Z,6.27
2017-08-29T12:16:31.336Z,7.00
2017-08-29T12:19:04.972Z,6.47
2017-08-29T12:21:32.591Z,5.83
2017-08-29T12:24:00.267Z,7.30
2017-08-29T12:26:27.888Z,7.03
2017-08-29T12:28:55.515Z,7.23
2017-08-29T12:31:23.110Z,6.97
2017-08-29T12:33:50.744Z,7.17
2017-08-29T12:36:18.405Z,7.53
2017-08-29T12:38:46.088Z,6.77
2017-08-29T12:41:13.730Z,7.13
2017-08-29T12:43:41.336Z,7.30
2017-08-29T12:46:08.965Z,7.30
2017-08-29T12:48:36.590Z,7.13
2017-08-29T12:51:04.240Z,6.53
2017-08-29T12:53:31.904Z,6.03
2017-08-29T12:55:59.532Z,7.17
2017-08-29T12:58:27.123Z,6.13
2017-08-29T13:00:54.730Z,6.10
2017-08-29T13:03:22.344Z,5.60
2017-08-29T13:05:49.975Z,5.90
2017-08-29T13:08:17.669Z,6.40
2017-08-29T13:10:45.278Z,6.43
2017-08-29T13:13:12.883Z,5.37
2017-08-29T13:15:40.506Z,6.20
2017-08-29T13:18:08.150Z,6.07
2017-08-29T13:20:35.779Z,6.27
2017-08-29T13:23:03.435Z,5.40
2017-08-29T13:25:31.035Z,6.03
2017-08-29T13:27:58.876Z,7.37
2017-08-29T13:30:26.495Z,6.83
2017-08-29T13:32:54.173Z,6.00
2017-08-29T13:35:21.782Z,5.80
2017-08-29T13:37:49.416Z,5.77
2017-08-29T13:40:17.036Z,6.07
2017-08-29T13:42:44.713Z,6.60
2017-08-29T13:45:12.312Z,5.77
2017-08-29T13:47:40.066Z,6.00
2017-08-29T13:50:08.720Z,5.60
2017-08-29T13:52:36.642Z,6.27
2017-08-29T13:55:04.308Z,6.00
2017-08-29T13:57:31.933Z,6.37
2017-08-29T13:59:59.515Z,5.40
2017-08-29T14:02:27.136Z,5.17
2017-08-29T14:04:54.699Z,5.33
2017-08-29T14:07:22.357Z,5.50
2017-08-29T14:09:49.966Z,5.23
2017-08-29T14:12:17.534Z,5.80
2017-08-29T14:14:45.253Z,5.30
2017-08-29T14:17:13.449Z,5.80
2017-08-29T14:19:41.086Z,5.17
2017-08-29T14:22:08.885Z,5.90
2017-08-29T14:24:38.337Z,5.90
2017-08-29T14:27:08.427Z,5.80
2017-08-29T14:29:36.303Z,6.13
2017-08-29T14:32:03.951Z,6.50
2017-08-29T14:34:31.615Z,5.60
2017-08-29T14:36:59.413Z,5.50
2017-08-29T14:39:27.022Z,5.80
2017-08-29T14:41:56.323Z,5.70
2017-08-29T14:44:23.928Z,5.43
2017-08-29T14:47:03.268Z,5.87
2017-08-29T14:49:30.893Z,5.70
2017-08-29T14:51:58.959Z,6.33
2017-08-29T14:54:27.562Z,5.87
2017-08-29T14:56:57.773Z,5.93
2017-08-29T14:59:25.468Z,6.47
2017-08-29T15:01:53.063Z,6.30
2017-08-29T15:04:20.947Z,6.40
2017-08-29T15:06:49.736Z,6.17
2017-08-29T15:09:17.356Z,6.23
2017-08-29T15:11:45.039Z,6.17
2017-08-29T15:14:13.024Z,6.40
2017-08-29T15:16:40.664Z,5.40
2017-08-29T15:19:08.332Z,5.50
2017-08-29T15:21:35.985Z,6.17
2017-08-29T15:24:03.670Z,5.83
2017-08-29T15:26:31.285Z,5.53
2017-08-29T15:28:58.898Z,6.77
2017-08-29T15:31:26.572Z,5.87
2017-08-29T15:33:56.632Z,6.67
2017-08-29T15:36:27.165Z,6.00
2017-08-29T15:38:55.210Z,6.20
2017-08-29T15:41:36.201Z,5.97
2017-08-29T15:44:03.858Z,6.23
2017-08-29T15:46:31.489Z,6.20
2017-08-29T15:48:59.096Z,6.30
2017-08-29T15:51:26.854Z,5.90
2017-08-29T15:53:54.644Z,5.80
2017-08-29T15:56:22.265Z,5.90
2017-08-29T15:58:50.456Z,7.00
2017-08-29T16:01:18.163Z,5.93
2017-08-29T16:03:45.830Z,6.53
2017-08-29T16:06:13.468Z,5.40
2017-08-29T16:08:42.206Z,5.70
2017-08-29T16:11:09.889Z,5.93
2017-08-29T16:13:37.466Z,6.17
2017-08-29T16:16:05.078Z,6.23
2017-08-29T16:18:32.724Z,6.47
2017-08-29T16:21:00.333Z,5.60
2017-08-29T16:23:27.935Z,6.13
2017-08-29T16:25:55.602Z,6.60
2017-08-29T16:28:23.219Z,6.30
2017-08-29T16:30:50.850Z,5.70
2017-08-29T16:33:18.465Z,6.03
2017-08-29T16:35:46.076Z,6.43
2017-08-29T16:38:13.669Z,6.47
2017-08-29T16:40:41.365Z,6.67
2017-08-29T16:43:09.022Z,6.03
2017-08-29T16:45:36.851Z,5.87
2017-08-29T16:48:04.485Z,7.00
2017-08-29T16:50:32.115Z,5.63
2017-08-29T16:52:59.705Z,5.80
2017-08-29T16:55:27.323Z,6.33
2017-08-29T16:57:55.911Z,5.90
2017-08-29T17:00:23.536Z,6.80
2017-08-29T17:02:51.136Z,6.03
2017-08-29T17:05:18.748Z,5.83
2017-08-29T17:07:46.466Z,5.87
2017-08-29T17:10:14.130Z,5.73
2017-08-29T17:12:41.762Z,5.43
2017-08-29T17:15:09.457Z,6.60
2017-08-29T17:17:37.115Z,6.30
2017-08-29T17:20:04.726Z,6.77
2017-08-29T17:22:32.494Z,7.37
2017-08-29T17:25:00.099Z,6.50
2017-08-29T17:27:32.145Z,6.30
2017-08-29T17:29:59.759Z,6.10
2017-08-29T17:32:27.369Z,6.60
2017-08-29T17:34:54.992Z,7.20
2017-08-29T17:37:22.622Z,6.10
2017-08-29T17:39:50.263Z,7.23
2017-08-29T17:42:17.884Z,6.20
2017-08-29T17:45:02.811Z,6.37
2017-08-29T17:47:30.437Z,6.40
2017-08-29T17:50:00.105Z,6.30
2017-08-29T17:52:27.799Z,6.80
2017-08-29T17:57:50.063Z,7.00
2017-08-29T18:00:17.708Z,6.63
2017-08-29T18:02:45.318Z,7.80
2017-08-29T18:05:15.055Z,8.00
2017-08-29T18:07:42.677Z,7.40
2017-08-29T18:10:11.182Z,7.87
2017-08-29T18:12:42.175Z,7.00
2017-08-29T18:15:09.789Z,7.90
2017-08-29T18:17:37.411Z,7.40
2017-08-29T18:20:05.039Z,7.33
2017-08-29T18:22:32.708Z,7.60
2017-08-29T18:25:00.335Z,8.20
2017-08-29T18:27:27.940Z,7.87
2017-08-29T18:29:55.535Z,8.10
2017-08-29T18:32:23.273Z,7.50
2017-08-29T18:34:50.891Z,8.13
2017-08-29T18:37:18.497Z,8.40
2017-08-29T18:39:46.167Z,7.60
2017-08-29T18:42:13.861Z,8.73
2017-08-29T18:44:41.480Z,8.60
2017-08-29T18:47:10.184Z,8.73
2017-08-29T18:49:37.814Z,8.77
2017-08-29T18:52:05.666Z,7.87
2017-08-29T18:54:33.296Z,9.53
2017-08-29T18:57:21.353Z,8.80
2017-08-29T18:59:55.181Z,8.80
2017-08-29T19:11:08.368Z,9.70
2017-08-29T19:13:37.813Z,9.40
2017-08-29T19:16:06.136Z,9.93
2017-08-29T19:18:38.256Z,8.80
2017-08-29T19:21:13.664Z,10.13
2017-08-29T19:23:42.447Z,9.63
2017-08-29T19:26:10.112Z,9.77
2017-08-29T19:28:37.814Z,9.70
2017-08-29T19:31:05.542Z,10.10
2017-08-29T19:33:33.158Z,10.60
2017-08-29T19:36:00.916Z,10.07
2017-08-29T19:38:28.696Z,10.67
2017-08-29T19:40:56.691Z,10.10
2017-08-29T19:43:24.655Z,9.57
2017-08-29T19:45:52.284Z,10.00
2017-08-29T19:48:20.675Z,11.30
2017-08-29T19:50:48.337Z,10.23
2017-08-29T19:53:15.937Z,10.93
2017-08-29T19:55:43.559Z,10.67
2017-08-29T19:58:11.170Z,11.17
2017-08-29T20:00:38.771Z,11.20
2017-08-29T20:03:06.425Z,11.50
2017-08-29T20:05:34.123Z,11.50
2017-08-29T20:08:01.748Z,11.73
2017-08-29T20:10:29.405Z,11.63
2017-08-29T20:13:07.295Z,11.77
2017-08-29T20:15:34.982Z,11.90
2017-08-29T20:18:11.265Z,12.90
2017-08-29T20:20:44.963Z,11.40
2017-08-29T20:23:12.792Z,12.27
2017-08-29T20:25:41.140Z,12.40
2017-08-29T20:28:10.270Z,11.70
2017-08-29T20:30:43.569Z,13.40
2017-08-29T20:33:29.160Z,13.23
2017-08-29T20:38:50.744Z,13.03
2017-08-29T20:41:18.379Z,13.27
2017-08-29T20:43:45.997Z,13.50
2017-08-29T20:46:13.591Z,13.57
2017-08-29T20:48:41.218Z,13.50
2017-08-29T20:51:08.819Z,13.50
2017-08-29T20:53:36.427Z,15.13
2017-08-29T20:56:04.012Z,15.07
2017-08-29T20:58:31.696Z,14.10
2017-08-29T21:00:59.291Z,14.60
2017-08-29T21:03:26.872Z,13.43
2017-08-29T21:05:54.543Z,13.83
2017-08-29T21:08:22.133Z,14.50
2017-08-29T21:10:49.718Z,14.10
2017-08-29T21:13:17.331Z,14.50
2017-08-29T21:15:44.948Z,14.70
2017-08-29T21:18:12.541Z,14.97
2017-08-29T21:20:40.180Z,14.37
2017-08-29T21:23:07.756Z,15.30
2017-08-29T21:25:35.370Z,14.90
2017-08-29T21:28:09.078Z,15.60
2017-08-29T21:30:36.661Z,14.77
2017-08-29T21:33:04.250Z,16.43
2017-08-29T21:35:31.918Z,16.27
2017-08-29T21:37:59.587Z,15.73
2017-08-29T21:40:27.173Z,15.60
2017-08-29T21:42:54.819Z,14.87
2017-08-29T21:45:22.396Z,15.20
2017-08-29T21:47:50.020Z,15.43
2017-08-29T21:50:17.725Z,15.23
2017-08-29T21:52:45.351Z,14.90
2017-08-29T21:58:10.279Z,15.83
2017-08-29T22:00:45.784Z,14.50
2017-08-29T22:03:13.400Z,14.13
2017-08-29T22:05:49.387Z,13.87
2017-08-29T22:08:17.105Z,15.40
2017-08-29T22:10:44.722Z,15.13
2017-08-29T22:13:12.330Z,15.20
2017-08-29T22:15:39.918Z,17.27
2017-08-29T22:18:07.583Z,16.90
2017-08-29T22:20:35.199Z,16.50
2017-08-29T22:23:02.809Z,17.23
2017-08-29T22:25:30.496Z,16.27
2017-08-29T22:27:58.107Z,17.03
2017-08-29T22:30:33.347Z,16.00
2017-08-29T22:33:00.995Z,16.80
2017-08-29T22:35:28.669Z,17.17
2017-08-29T22:37:56.389Z,17.43
2017-08-29T22:40:24.040Z,17.13
2017-08-29T22:42:51.680Z,17.27
2017-08-29T22:45:19.296Z,18.43
2017-08-29T22:47:46.966Z,18.03
2017-08-29T22:50:14.566Z,18.80
2017-08-29T22:52:42.211Z,18.00
2017-08-29T22:55:11.815Z,19.00
2017-08-29T22:57:39.402Z,17.77
2017-08-29T23:00:07.191Z,18.20
2017-08-29T23:02:34.780Z,18.23
2017-08-29T23:05:02.402Z,16.90
2017-08-29T23:07:30.048Z,16.53
2017-08-29T23:09:57.683Z,17.03
2017-08-29T23:12:25.278Z,16.40
2017-08-29T23:15:05.572Z,16.73
2017-08-29T23:17:33.172Z,17.60
2017-08-29T23:20:00.797Z,15.33
2017-08-29T23:22:28.488Z,14.93
2017-08-29T23:24:56.093Z,15.00
2017-08-29T23:27:23.693Z,14.77
2017-08-29T23:29:51.391Z,13.20
2017-08-29T23:32:18.988Z,14.67
2017-08-29T23:34:46.651Z,12.83
2017-08-29T23:37:14.304Z,13.43
2017-08-29T23:39:41.939Z,12.70
2017-08-29T23:42:09.545Z,12.47
2017-08-29T23:44:37.112Z,12.47
2017-08-29T23:47:04.779Z,11.17
2017-08-29T23:49:32.357Z,11.90
2017-08-29T23:52:00.066Z,10.87
2017-08-29T23:54:27.851Z,11.40
2017-08-29T23:56:55.431Z,11.77
2017-08-29T23:59:23.005Z,12.33
